sensor_id;sensor_type;location;lat;lon;timestamp;temperature;humidity
46730;DHT22;32476;50.002;11.854;2023-04-01T00:01:41;5.90;99.90
46730;DHT22;32476;50.002;11.854;2023-04-01T00:04:09;5.90;99.90
46730;DHT22;32476;50.002;11.854;2023-04-01T00:06:35;5.90;99.90
46730;DHT22;32476;50.002;11.854;2023-04-01T00:09:00;5.90;99.90
46730;DHT22;32476;50.002;11.854;2023-04-01T00:11:28;5.90;99.90
46730;DHT22;32476;50.002;11.854;2023-04-01T00:13:55;5.90;99.90
46730;DHT22;32476;50.002;11.854;2023-04-01T00:16:21;5.90;99.90
46730;DHT22;32476;50.002;11.854;2023-04-01T00:18:49;5.80;99.90
46730;DHT22;32476;50.002;11.854;2023-04-01T00:21:16;5.90;99.90
46730;DHT22;32476;50.002;11.854;2023-04-01T00:23:42;5.80;99.90
46730;DHT22;32476;50.002;11.854;2023-04-01T00:26:10;5.80;99.90
46730;DHT22;32476;50.002;11.854;2023-04-01T00:28:37;5.80;99.90
46730;DHT22;32476;50.002;11.854;2023-04-01T00:31:07;5.80;99.90
46730;DHT22;32476;50.002;11.854;2023-04-01T00:33:35;5.80;99.90
46730;DHT22;32476;50.002;11.854;2023-04-01T00:36:12;5.80;99.90
46730;DHT22;32476;50.002;11.854;2023-04-01T00:38:40;5.80;99.90
46730;DHT22;32476;50.002;11.854;2023-04-01T00:41:08;5.80;99.90
46730;DHT22;32476;50.002;11.854;2023-04-01T00:43:36;5.80;99.90
46730;DHT22;32476;50.002;11.854;2023-04-01T00:46:03;5.80;99.90
46730;DHT22;32476;50.002;11.854;2023-04-01T00:48:35;5.80;99.90
46730;DHT22;32476;50.002;11.854;2023-04-01T00:51:09;5.80;99.90
46730;DHT22;32476;50.002;11.854;2023-04-01T00:53:41;5.80;99.90
46730;DHT22;32476;50.002;11.854;2023-04-01T00:56:11;5.80;99.90
46730;DHT22;32476;50.002;11.854;2023-04-01T00:58:43;5.80;99.90
46730;DHT22;32476;50.002;11.854;2023-04-01T01:01:11;5.80;99.90
46730;DHT22;32476;50.002;11.854;2023-04-01T01:03:36;5.80;99.90
46730;DHT22;32476;50.002;11.854;2023-04-01T01:11:51;5.80;99.90
46730;DHT22;32476;50.002;11.854;2023-04-01T01:14:45;5.80;99.90
46730;DHT22;32476;50.002;11.854;2023-04-01T01:17:46;5.80;99.90
46730;DHT22;32476;50.002;11.854;2023-04-01T01:31:50;5.80;99.90
46730;DHT22;32476;50.002;11.854;2023-04-01T01:37:14;5.80;99.90
46730;DHT22;32476;50.002;11.854;2023-04-01T01:39:44;5.80;99.90
46730;DHT22;32476;50.002;11.854;2023-04-01T01:42:15;5.80;99.90
46730;DHT22;32476;50.002;11.854;2023-04-01T01:44:44;5.80;99.90
46730;DHT22;32476;50.002;11.854;2023-04-01T01:47:11;5.80;99.90
46730;DHT22;32476;50.002;11.854;2023-04-01T01:49:42;5.80;99.90
46730;DHT22;32476;50.002;11.854;2023-04-01T01:52:08;5.80;99.90
46730;DHT22;32476;50.002;11.854;2023-04-01T01:54:35;5.80;99.90
46730;DHT22;32476;50.002;11.854;2023-04-01T01:57:08;5.80;99.90
46730;DHT22;32476;50.002;11.854;2023-04-01T01:59:38;5.80;99.90
46730;DHT22;32476;50.002;11.854;2023-04-01T02:02:08;5.80;99.90
46730;DHT22;32476;50.002;11.854;2023-04-01T02:04:39;5.80;99.90
46730;DHT22;32476;50.002;11.854;2023-04-01T02:07:19;5.80;99.90
46730;DHT22;32476;50.002;11.854;2023-04-01T02:09:48;5.80;99.90
46730;DHT22;32476;50.002;11.854;2023-04-01T02:12:16;5.80;99.90
46730;DHT22;32476;50.002;11.854;2023-04-01T02:17:21;5.80;99.90
46730;DHT22;32476;50.002;11.854;2023-04-01T02:20:00;5.80;99.90
46730;DHT22;32476;50.002;11.854;2023-04-01T02:22:31;5.80;99.90
46730;DHT22;32476;50.002;11.854;2023-04-01T02:25:02;5.80;99.90
46730;DHT22;32476;50.002;11.854;2023-04-01T02:27:32;5.80;99.90
46730;DHT22;32476;50.002;11.854;2023-04-01T02:29:57;5.80;99.90
46730;DHT22;32476;50.002;11.854;2023-04-01T02:32:24;5.80;99.90
46730;DHT22;32476;50.002;11.854;2023-04-01T02:34:52;5.70;99.90
46730;DHT22;32476;50.002;11.854;2023-04-01T02:37:18;5.80;99.90
46730;DHT22;32476;50.002;11.854;2023-04-01T02:39:44;5.80;99.90
46730;DHT22;32476;50.002;11.854;2023-04-01T02:42:11;5.80;99.90
46730;DHT22;32476;50.002;11.854;2023-04-01T02:44:37;5.80;99.90
46730;DHT22;32476;50.002;11.854;2023-04-01T02:47:03;5.80;99.90
46730;DHT22;32476;50.002;11.854;2023-04-01T02:49:30;5.90;99.90
46730;DHT22;32476;50.002;11.854;2023-04-01T02:51:56;5.80;99.90
46730;DHT22;32476;50.002;11.854;2023-04-01T02:54:21;5.80;99.90
46730;DHT22;32476;50.002;11.854;2023-04-01T02:56:49;5.80;99.90
46730;DHT22;32476;50.002;11.854;2023-04-01T02:59:15;5.80;99.90
46730;DHT22;32476;50.002;11.854;2023-04-01T03:01:41;5.80;99.90
46730;DHT22;32476;50.002;11.854;2023-04-01T03:04:08;5.80;99.90
46730;DHT22;32476;50.002;11.854;2023-04-01T03:06:34;5.80;99.90
46730;DHT22;32476;50.002;11.854;2023-04-01T03:09:26;5.80;99.90
46730;DHT22;32476;50.002;11.854;2023-04-01T03:11:53;5.80;99.90
46730;DHT22;32476;50.002;11.854;2023-04-01T03:14:19;5.80;99.90
46730;DHT22;32476;50.002;11.854;2023-04-01T03:16:45;5.80;99.90
46730;DHT22;32476;50.002;11.854;2023-04-01T03:19:12;5.80;99.90
46730;DHT22;32476;50.002;11.854;2023-04-01T03:21:38;5.80;99.90
46730;DHT22;32476;50.002;11.854;2023-04-01T03:24:04;5.80;99.90
46730;DHT22;32476;50.002;11.854;2023-04-01T03:26:31;5.80;99.90
46730;DHT22;32476;50.002;11.854;2023-04-01T03:28:57;5.80;99.90
46730;DHT22;32476;50.002;11.854;2023-04-01T03:31:24;5.80;99.90
46730;DHT22;32476;50.002;11.854;2023-04-01T03:33:51;5.80;99.90
46730;DHT22;32476;50.002;11.854;2023-04-01T03:36:17;5.80;99.90
46730;DHT22;32476;50.002;11.854;2023-04-01T03:38:44;5.80;99.90
46730;DHT22;32476;50.002;11.854;2023-04-01T03:41:15;5.80;99.90
46730;DHT22;32476;50.002;11.854;2023-04-01T03:43:41;5.80;99.90
46730;DHT22;32476;50.002;11.854;2023-04-01T03:46:07;5.80;99.90
46730;DHT22;32476;50.002;11.854;2023-04-01T03:48:35;5.80;99.90
46730;DHT22;32476;50.002;11.854;2023-04-01T03:51:03;5.80;99.90
46730;DHT22;32476;50.002;11.854;2023-04-01T03:53:31;5.70;99.90
46730;DHT22;32476;50.002;11.854;2023-04-01T03:56:03;5.80;99.90
46730;DHT22;32476;50.002;11.854;2023-04-01T03:58:29;5.80;99.90
46730;DHT22;32476;50.002;11.854;2023-04-01T04:00:55;5.80;99.90
46730;DHT22;32476;50.002;11.854;2023-04-01T04:03:22;5.80;99.90
46730;DHT22;32476;50.002;11.854;2023-04-01T04:05:49;5.70;99.90
46730;DHT22;32476;50.002;11.854;2023-04-01T04:08:16;5.80;99.90
46730;DHT22;32476;50.002;11.854;2023-04-01T04:10:43;5.70;99.90
46730;DHT22;32476;50.002;11.854;2023-04-01T04:13:09;5.70;99.90
46730;DHT22;32476;50.002;11.854;2023-04-01T04:15:35;5.70;99.90
46730;DHT22;32476;50.002;11.854;2023-04-01T04:18:02;5.70;99.90
46730;DHT22;32476;50.002;11.854;2023-04-01T04:20:28;5.70;99.90
46730;DHT22;32476;50.002;11.854;2023-04-01T04:22:54;5.70;99.90
46730;DHT22;32476;50.002;11.854;2023-04-01T04:25:21;5.70;99.90
46730;DHT22;32476;50.002;11.854;2023-04-01T04:27:50;5.70;99.90
46730;DHT22;32476;50.002;11.854;2023-04-01T04:30:16;5.70;99.90
46730;DHT22;32476;50.002;11.854;2023-04-01T04:32:43;5.60;99.90
46730;DHT22;32476;50.002;11.854;2023-04-01T04:35:09;5.60;99.90
46730;DHT22;32476;50.002;11.854;2023-04-01T04:37:35;5.60;99.90
46730;DHT22;32476;50.002;11.854;2023-04-01T04:40:03;5.60;99.90
46730;DHT22;32476;50.002;11.854;2023-04-01T04:42:29;5.60;99.90
46730;DHT22;32476;50.002;11.854;2023-04-01T04:44:55;5.60;99.90
46730;DHT22;32476;50.002;11.854;2023-04-01T04:47:22;5.50;99.90
46730;DHT22;32476;50.002;11.854;2023-04-01T04:49:48;5.50;99.90
46730;DHT22;32476;50.002;11.854;2023-04-01T04:52:14;5.50;99.90
46730;DHT22;32476;50.002;11.854;2023-04-01T04:54:41;5.50;99.90
46730;DHT22;32476;50.002;11.854;2023-04-01T04:57:07;5.50;99.90
46730;DHT22;32476;50.002;11.854;2023-04-01T04:59:33;5.50;99.90
46730;DHT22;32476;50.002;11.854;2023-04-01T05:02:01;5.40;99.90
46730;DHT22;32476;50.002;11.854;2023-04-01T05:04:27;5.40;99.90
46730;DHT22;32476;50.002;11.854;2023-04-01T05:06:52;5.40;99.90
46730;DHT22;32476;50.002;11.854;2023-04-01T05:09:20;5.40;99.90
46730;DHT22;32476;50.002;11.854;2023-04-01T05:11:46;5.40;99.90
46730;DHT22;32476;50.002;11.854;2023-04-01T05:14:15;5.40;99.90
46730;DHT22;32476;50.002;11.854;2023-04-01T05:16:43;5.40;99.90
46730;DHT22;32476;50.002;11.854;2023-04-01T05:19:08;5.40;99.90
46730;DHT22;32476;50.002;11.854;2023-04-01T05:21:34;5.40;99.90
46730;DHT22;32476;50.002;11.854;2023-04-01T05:24:02;5.40;99.90
46730;DHT22;32476;50.002;11.854;2023-04-01T05:26:27;5.50;99.90
46730;DHT22;32476;50.002;11.854;2023-04-01T05:28:53;5.50;99.90
46730;DHT22;32476;50.002;11.854;2023-04-01T05:31:20;5.50;99.90
46730;DHT22;32476;50.002;11.854;2023-04-01T05:33:46;5.50;99.90
46730;DHT22;32476;50.002;11.854;2023-04-01T05:36:15;5.60;99.90
46730;DHT22;32476;50.002;11.854;2023-04-01T05:38:43;5.60;99.90
46730;DHT22;32476;50.002;11.854;2023-04-01T05:41:11;5.60;99.90
46730;DHT22;32476;50.002;11.854;2023-04-01T05:43:38;5.60;99.90
46730;DHT22;32476;50.002;11.854;2023-04-01T05:46:06;5.60;99.90
46730;DHT22;32476;50.002;11.854;2023-04-01T05:48:33;5.60;99.90
46730;DHT22;32476;50.002;11.854;2023-04-01T05:51:00;5.60;99.90
46730;DHT22;32476;50.002;11.854;2023-04-01T05:53:28;5.60;99.90
46730;DHT22;32476;50.002;11.854;2023-04-01T05:55:54;5.60;99.90
46730;DHT22;32476;50.002;11.854;2023-04-01T05:58:19;5.60;99.90
46730;DHT22;32476;50.002;11.854;2023-04-01T06:00:47;5.60;99.90
46730;DHT22;32476;50.002;11.854;2023-04-01T06:03:13;5.60;99.90
46730;DHT22;32476;50.002;11.854;2023-04-01T06:05:41;5.60;99.90
46730;DHT22;32476;50.002;11.854;2023-04-01T06:08:27;5.50;99.90
46730;DHT22;32476;50.002;11.854;2023-04-01T06:10:58;5.50;99.90
46730;DHT22;32476;50.002;11.854;2023-04-01T06:22:06;5.50;99.90
46730;DHT22;32476;50.002;11.854;2023-04-01T06:27:54;5.50;99.90
46730;DHT22;32476;50.002;11.854;2023-04-01T06:30:43;5.50;99.90
46730;DHT22;32476;50.002;11.854;2023-04-01T06:33:37;5.50;99.90
46730;DHT22;32476;50.002;11.854;2023-04-01T06:39:09;5.50;99.90
46730;DHT22;32476;50.002;11.854;2023-04-01T06:55:44;5.40;99.90
46730;DHT22;32476;50.002;11.854;2023-04-01T06:58:29;5.50;99.90
46730;DHT22;32476;50.002;11.854;2023-04-01T07:01:07;5.50;99.90
46730;DHT22;32476;50.002;11.854;2023-04-01T07:03:40;5.50;99.90
46730;DHT22;32476;50.002;11.854;2023-04-01T07:06:22;5.50;99.90
46730;DHT22;32476;50.002;11.854;2023-04-01T07:08:51;5.50;99.90
46730;DHT22;32476;50.002;11.854;2023-04-01T07:11:29;5.50;99.90
46730;DHT22;32476;50.002;11.854;2023-04-01T07:14:17;5.50;99.90
46730;DHT22;32476;50.002;11.854;2023-04-01T07:16:50;5.50;99.90
46730;DHT22;32476;50.002;11.854;2023-04-01T07:24:44;5.60;99.90
46730;DHT22;32476;50.002;11.854;2023-04-01T07:27:12;5.60;99.90
46730;DHT22;32476;50.002;11.854;2023-04-01T07:29:39;5.70;99.90
46730;DHT22;32476;50.002;11.854;2023-04-01T07:32:31;5.70;99.90
46730;DHT22;32476;50.002;11.854;2023-04-01T07:35:16;5.80;99.90
46730;DHT22;32476;50.002;11.854;2023-04-01T07:37:47;5.80;99.90
46730;DHT22;32476;50.002;11.854;2023-04-01T07:42:53;5.80;99.90
46730;DHT22;32476;50.002;11.854;2023-04-01T07:51:00;5.80;99.90
46730;DHT22;32476;50.002;11.854;2023-04-01T07:53:49;5.90;99.90
46730;DHT22;32476;50.002;11.854;2023-04-01T07:56:23;5.90;99.90
46730;DHT22;32476;50.002;11.854;2023-04-01T07:59:15;5.90;99.90
46730;DHT22;32476;50.002;11.854;2023-04-01T08:05:09;6.00;99.90
46730;DHT22;32476;50.002;11.854;2023-04-01T08:07:53;6.00;99.90
46730;DHT22;32476;50.002;11.854;2023-04-01T08:13:15;5.90;99.90
46730;DHT22;32476;50.002;11.854;2023-04-01T08:16:14;5.90;99.90
46730;DHT22;32476;50.002;11.854;2023-04-01T08:21:24;5.90;99.90
46730;DHT22;32476;50.002;11.854;2023-04-01T08:24:00;5.90;99.90
46730;DHT22;32476;50.002;11.854;2023-04-01T08:26:37;5.90;99.90
46730;DHT22;32476;50.002;11.854;2023-04-01T08:29:21;5.90;99.90
46730;DHT22;32476;50.002;11.854;2023-04-01T08:31:55;5.90;99.90
46730;DHT22;32476;50.002;11.854;2023-04-01T08:34:38;5.90;99.90
46730;DHT22;32476;50.002;11.854;2023-04-01T08:37:17;5.90;99.90
46730;DHT22;32476;50.002;11.854;2023-04-01T08:39:50;5.90;99.90
46730;DHT22;32476;50.002;11.854;2023-04-01T08:45:56;5.90;99.90
46730;DHT22;32476;50.002;11.854;2023-04-01T08:49:04;5.90;99.90
46730;DHT22;32476;50.002;11.854;2023-04-01T08:52:15;5.90;99.90
46730;DHT22;32476;50.002;11.854;2023-04-01T08:57:21;6.00;99.90
46730;DHT22;32476;50.002;11.854;2023-04-01T09:00:10;5.90;99.90
46730;DHT22;32476;50.002;11.854;2023-04-01T09:03:20;5.90;99.90
46730;DHT22;32476;50.002;11.854;2023-04-01T09:09:13;5.90;99.90
46730;DHT22;32476;50.002;11.854;2023-04-01T09:20:42;6.20;99.90
46730;DHT22;32476;50.002;11.854;2023-04-01T09:23:27;6.30;99.90
46730;DHT22;32476;50.002;11.854;2023-04-01T09:28:49;6.40;99.90
46730;DHT22;32476;50.002;11.854;2023-04-01T09:31:54;6.40;99.90
46730;DHT22;32476;50.002;11.854;2023-04-01T09:34:57;6.40;99.90
46730;DHT22;32476;50.002;11.854;2023-04-01T09:54:55;6.40;99.90
46730;DHT22;32476;50.002;11.854;2023-04-01T10:08:49;6.50;99.90
46730;DHT22;32476;50.002;11.854;2023-04-01T10:20:21;6.40;99.90
46730;DHT22;32476;50.002;11.854;2023-04-01T10:23:14;6.40;99.90
46730;DHT22;32476;50.002;11.854;2023-04-01T10:33:52;6.50;99.90
46730;DHT22;32476;50.002;11.854;2023-04-01T10:36:50;6.50;99.90
46730;DHT22;32476;50.002;11.854;2023-04-01T10:39:37;6.50;99.90
46730;DHT22;32476;50.002;11.854;2023-04-01T10:56:50;6.60;99.90
46730;DHT22;32476;50.002;11.854;2023-04-01T11:02:45;6.70;99.90
46730;DHT22;32476;50.002;11.854;2023-04-01T11:06:06;6.60;99.90
46730;DHT22;32476;50.002;11.854;2023-04-01T11:18:20;6.70;99.90
46730;DHT22;32476;50.002;11.854;2023-04-01T11:21:06;6.60;99.90
46730;DHT22;32476;50.002;11.854;2023-04-01T11:35:32;6.90;99.90
46730;DHT22;32476;50.002;11.854;2023-04-01T11:38:45;6.90;99.90
46730;DHT22;32476;50.002;11.854;2023-04-01T11:42:33;6.90;99.90
46730;DHT22;32476;50.002;11.854;2023-04-01T11:44:28;7.00;99.90
46730;DHT22;32476;50.002;11.854;2023-04-01T11:50:27;6.80;99.90
46730;DHT22;32476;50.002;11.854;2023-04-01T12:02:09;6.60;99.90
46730;DHT22;32476;50.002;11.854;2023-04-01T12:18:27;7.40;99.90
46730;DHT22;32476;50.002;11.854;2023-04-01T12:26:56;7.20;99.90
46730;DHT22;32476;50.002;11.854;2023-04-01T12:38:26;6.80;99.90
46730;DHT22;32476;50.002;11.854;2023-04-01T12:41:14;6.60;99.90
46730;DHT22;32476;50.002;11.854;2023-04-01T12:43:53;6.50;99.90
46730;DHT22;32476;50.002;11.854;2023-04-01T12:52:26;6.60;99.90
46730;DHT22;32476;50.002;11.854;2023-04-01T13:03:48;6.70;99.90
46730;DHT22;32476;50.002;11.854;2023-04-01T13:06:44;6.80;99.90
46730;DHT22;32476;50.002;11.854;2023-04-01T13:09:29;6.80;99.90
46730;DHT22;32476;50.002;11.854;2023-04-01T13:17:53;6.80;99.90
46730;DHT22;32476;50.002;11.854;2023-04-01T13:20:53;6.80;99.90
46730;DHT22;32476;50.002;11.854;2023-04-01T13:26:22;6.90;99.90
46730;DHT22;32476;50.002;11.854;2023-04-01T13:29:13;6.90;99.90
46730;DHT22;32476;50.002;11.854;2023-04-01T13:34:36;6.80;99.90
46730;DHT22;32476;50.002;11.854;2023-04-01T13:37:32;6.80;99.90
46730;DHT22;32476;50.002;11.854;2023-04-01T13:59:57;6.60;99.90
46730;DHT22;32476;50.002;11.854;2023-04-01T14:05:51;6.60;99.90
46730;DHT22;32476;50.002;11.854;2023-04-01T14:08:41;6.60;99.90
46730;DHT22;32476;50.002;11.854;2023-04-01T14:11:29;6.60;99.90
46730;DHT22;32476;50.002;11.854;2023-04-01T14:17:05;6.60;99.90
46730;DHT22;32476;50.002;11.854;2023-04-01T14:19:56;6.60;99.90
46730;DHT22;32476;50.002;11.854;2023-04-01T14:29:03;6.70;99.90
46730;DHT22;32476;50.002;11.854;2023-04-01T14:34:43;6.70;99.90
46730;DHT22;32476;50.002;11.854;2023-04-01T14:43:43;6.80;99.90
46730;DHT22;32476;50.002;11.854;2023-04-01T14:46:45;6.80;99.90
46730;DHT22;32476;50.002;11.854;2023-04-01T14:49:28;6.80;99.90
46730;DHT22;32476;50.002;11.854;2023-04-01T14:51:56;6.80;99.90
46730;DHT22;32476;50.002;11.854;2023-04-01T14:54:35;6.90;99.90
46730;DHT22;32476;50.002;11.854;2023-04-01T14:59:51;6.70;99.90
46730;DHT22;32476;50.002;11.854;2023-04-01T15:05:27;6.70;99.90
46730;DHT22;32476;50.002;11.854;2023-04-01T15:16:34;6.90;99.90
46730;DHT22;32476;50.002;11.854;2023-04-01T15:19:10;6.80;99.90
46730;DHT22;32476;50.002;11.854;2023-04-01T15:22:12;6.80;99.90
46730;DHT22;32476;50.002;11.854;2023-04-01T15:25:13;6.80;99.90
46730;DHT22;32476;50.002;11.854;2023-04-01T15:36:05;6.80;99.90
46730;DHT22;32476;50.002;11.854;2023-04-01T15:38:49;6.80;99.90
46730;DHT22;32476;50.002;11.854;2023-04-01T15:44:04;6.80;99.90
46730;DHT22;32476;50.002;11.854;2023-04-01T15:46:50;6.80;99.90
46730;DHT22;32476;50.002;11.854;2023-04-01T15:49:37;6.80;99.90
46730;DHT22;32476;50.002;11.854;2023-04-01T15:52:22;6.70;99.90
46730;DHT22;32476;50.002;11.854;2023-04-01T16:00:34;6.70;99.90
46730;DHT22;32476;50.002;11.854;2023-04-01T16:09:34;6.60;99.90
46730;DHT22;32476;50.002;11.854;2023-04-01T16:20:49;6.60;99.90
46730;DHT22;32476;50.002;11.854;2023-04-01T16:36:55;6.60;99.90
46730;DHT22;32476;50.002;11.854;2023-04-01T16:39:52;6.60;99.90
46730;DHT22;32476;50.002;11.854;2023-04-01T16:45:17;6.60;99.90
46730;DHT22;32476;50.002;11.854;2023-04-01T16:50:24;6.60;99.90
46730;DHT22;32476;50.002;11.854;2023-04-01T16:55:50;6.60;99.90
46730;DHT22;32476;50.002;11.854;2023-04-01T16:58:33;6.60;99.90
46730;DHT22;32476;50.002;11.854;2023-04-01T17:01:06;6.60;99.90
46730;DHT22;32476;50.002;11.854;2023-04-01T17:03:45;6.60;99.90
46730;DHT22;32476;50.002;11.854;2023-04-01T17:06:25;6.60;99.90
46730;DHT22;32476;50.002;11.854;2023-04-01T17:09:29;6.60;99.90
46730;DHT22;32476;50.002;11.854;2023-04-01T17:14:51;6.60;99.90
46730;DHT22;32476;50.002;11.854;2023-04-01T17:17:29;6.60;99.90
46730;DHT22;32476;50.002;11.854;2023-04-01T17:26:06;6.50;99.90
46730;DHT22;32476;50.002;11.854;2023-04-01T17:28:46;6.50;99.90
46730;DHT22;32476;50.002;11.854;2023-04-01T17:34:09;6.50;99.90
46730;DHT22;32476;50.002;11.854;2023-04-01T17:39:33;6.50;99.90
46730;DHT22;32476;50.002;11.854;2023-04-01T17:42:09;6.50;99.90
46730;DHT22;32476;50.002;11.854;2023-04-01T17:53:02;6.50;99.90
46730;DHT22;32476;50.002;11.854;2023-04-01T17:55:40;6.40;99.90
46730;DHT22;32476;50.002;11.854;2023-04-01T17:58:20;6.40;99.90
46730;DHT22;32476;50.002;11.854;2023-04-01T18:01:02;6.50;99.90
46730;DHT22;32476;50.002;11.854;2023-04-01T18:06:14;6.40;99.90
46730;DHT22;32476;50.002;11.854;2023-04-01T18:08:54;6.30;99.90
46730;DHT22;32476;50.002;11.854;2023-04-01T18:14:29;6.40;99.90
46730;DHT22;32476;50.002;11.854;2023-04-01T18:17:04;6.40;99.90
46730;DHT22;32476;50.002;11.854;2023-04-01T18:20:02;6.40;99.90
46730;DHT22;32476;50.002;11.854;2023-04-01T18:22:53;6.40;99.90
46730;DHT22;32476;50.002;11.854;2023-04-01T18:25:42;6.40;99.90
46730;DHT22;32476;50.002;11.854;2023-04-01T18:31:19;6.30;99.90
46730;DHT22;32476;50.002;11.854;2023-04-01T18:34:06;6.30;99.90
46730;DHT22;32476;50.002;11.854;2023-04-01T18:39:40;6.30;99.90
46730;DHT22;32476;50.002;11.854;2023-04-01T18:42:41;6.30;99.90
46730;DHT22;32476;50.002;11.854;2023-04-01T18:45:23;6.30;99.90
46730;DHT22;32476;50.002;11.854;2023-04-01T18:50:55;6.30;99.90
46730;DHT22;32476;50.002;11.854;2023-04-01T18:56:23;6.30;99.90
46730;DHT22;32476;50.002;11.854;2023-04-01T18:59:20;6.30;99.90
46730;DHT22;32476;50.002;11.854;2023-04-01T19:02:21;6.30;99.90
46730;DHT22;32476;50.002;11.854;2023-04-01T19:05:04;6.30;99.90
46730;DHT22;32476;50.002;11.854;2023-04-01T19:21:12;6.30;99.90
46730;DHT22;32476;50.002;11.854;2023-04-01T19:27:03;6.30;99.90
46730;DHT22;32476;50.002;11.854;2023-04-01T19:29:44;6.30;99.90
46730;DHT22;32476;50.002;11.854;2023-04-01T19:35:27;6.30;99.90
46730;DHT22;32476;50.002;11.854;2023-04-01T19:38:20;6.30;99.90
46730;DHT22;32476;50.002;11.854;2023-04-01T19:50:26;6.30;99.90
46730;DHT22;32476;50.002;11.854;2023-04-01T19:52:59;6.30;99.90
46730;DHT22;32476;50.002;11.854;2023-04-01T20:11:30;6.20;99.90
46730;DHT22;32476;50.002;11.854;2023-04-01T20:14:26;6.20;99.90
46730;DHT22;32476;50.002;11.854;2023-04-01T20:32:02;6.20;99.90
46730;DHT22;32476;50.002;11.854;2023-04-01T20:40:38;6.20;99.90
46730;DHT22;32476;50.002;11.854;2023-04-01T20:43:29;6.20;99.90
46730;DHT22;32476;50.002;11.854;2023-04-01T20:46:20;6.20;99.90
46730;DHT22;32476;50.002;11.854;2023-04-01T20:51:26;6.20;99.90
46730;DHT22;32476;50.002;11.854;2023-04-01T21:02:19;6.20;99.90
46730;DHT22;32476;50.002;11.854;2023-04-01T21:08:08;6.20;99.90
46730;DHT22;32476;50.002;11.854;2023-04-01T21:11:01;6.20;99.90
46730;DHT22;32476;50.002;11.854;2023-04-01T21:13:56;6.10;99.90
46730;DHT22;32476;50.002;11.854;2023-04-01T21:19:56;6.20;99.90
46730;DHT22;32476;50.002;11.854;2023-04-01T21:33:04;6.10;99.90
46730;DHT22;32476;50.002;11.854;2023-04-01T21:41:20;6.20;99.90
46730;DHT22;32476;50.002;11.854;2023-04-01T21:50:00;6.20;99.90
46730;DHT22;32476;50.002;11.854;2023-04-01T21:58:42;6.20;99.90
46730;DHT22;32476;50.002;11.854;2023-04-01T22:07:17;6.10;99.90
46730;DHT22;32476;50.002;11.854;2023-04-01T22:10:15;6.10;99.90
46730;DHT22;32476;50.002;11.854;2023-04-01T22:13:11;6.10;99.90
46730;DHT22;32476;50.002;11.854;2023-04-01T22:15:59;6.10;99.90
46730;DHT22;32476;50.002;11.854;2023-04-01T22:18:40;6.10;99.90
46730;DHT22;32476;50.002;11.854;2023-04-01T22:24:20;6.10;99.90
46730;DHT22;32476;50.002;11.854;2023-04-01T22:27:01;6.10;99.90
46730;DHT22;32476;50.002;11.854;2023-04-01T22:29:32;6.10;99.90
46730;DHT22;32476;50.002;11.854;2023-04-01T22:32:11;6.10;99.90
46730;DHT22;32476;50.002;11.854;2023-04-01T22:35:04;6.10;99.90
46730;DHT22;32476;50.002;11.854;2023-04-01T22:37:58;6.10;99.90
46730;DHT22;32476;50.002;11.854;2023-04-01T22:43:39;6.00;99.90
46730;DHT22;32476;50.002;11.854;2023-04-01T22:46:15;6.00;99.90
46730;DHT22;32476;50.002;11.854;2023-04-01T22:49:02;6.00;99.90
46730;DHT22;32476;50.002;11.854;2023-04-01T22:51:52;6.00;99.90
46730;DHT22;32476;50.002;11.854;2023-04-01T22:56:55;6.00;99.90
46730;DHT22;32476;50.002;11.854;2023-04-01T22:59:35;6.00;99.90
46730;DHT22;32476;50.002;11.854;2023-04-01T23:02:17;6.00;99.90
46730;DHT22;32476;50.002;11.854;2023-04-01T23:04:52;5.90;99.90
46730;DHT22;32476;50.002;11.854;2023-04-01T23:09:57;5.90;99.90
46730;DHT22;32476;50.002;11.854;2023-04-01T23:12:26;5.90;99.90
46730;DHT22;32476;50.002;11.854;2023-04-01T23:15:00;5.90;99.90
46730;DHT22;32476;50.002;11.854;2023-04-01T23:20:30;6.00;99.90
46730;DHT22;32476;50.002;11.854;2023-04-01T23:23:11;5.90;99.90
46730;DHT22;32476;50.002;11.854;2023-04-01T23:26:04;5.90;99.90
46730;DHT22;32476;50.002;11.854;2023-04-01T23:28:52;6.00;99.90
46730;DHT22;32476;50.002;11.854;2023-04-01T23:31:26;5.90;99.90
46730;DHT22;32476;50.002;11.854;2023-04-01T23:34:21;6.00;99.90
46730;DHT22;32476;50.002;11.854;2023-04-01T23:36:50;5.90;99.90
46730;DHT22;32476;50.002;11.854;2023-04-01T23:41:53;5.90;99.90
46730;DHT22;32476;50.002;11.854;2023-04-01T23:44:20;5.90;99.90
46730;DHT22;32476;50.002;11.854;2023-04-01T23:46:48;5.90;99.90
46730;DHT22;32476;50.002;11.854;2023-04-01T23:49:24;5.90;99.90
46730;DHT22;32476;50.002;11.854;2023-04-01T23:52:11;5.90;99.90
46730;DHT22;32476;50.002;11.854;2023-04-01T23:54:42;5.90;99.90
46730;DHT22;32476;50.002;11.854;2023-04-01T23:57:13;5.80;99.90
